Time;durP1;ratioP1;P1;durP2;ratioP2;P2;SDS_P1;SDS_P2;PMS_P1;PMS_P2;Temp;Humidity;BMP_temperature;BMP_pressure;BME280_temperature;BME280_humidity;BME280_pressure;Samples;Min_cycle;Max_cycle;Signal;HPM_P1;HPM_P2
2022/11/07 00:01:57;;;;;;;22.60;15.43;;;;;;;;;;5094605;28;20457;-71
2022/11/07 00:04:24;;;;;;;21.40;15.03;;;;;;;;;;5094005;28;20462;-71
2022/11/07 00:06:51;;;;;;;23.33;14.93;;;;;;;;;;5094675;28;20462;-71
2022/11/07 00:09:18;;;;;;;24.87;18.03;;;;;;;;;;5094443;28;20453;-71
2022/11/07 00:11:45;;;;;;;25.60;16.50;;;;;;;;;;5094290;28;20464;-71
2022/11/07 00:14:14;;;;;;;23.40;15.60;;;;;;;;;;5093892;28;20490;-71
2022/11/07 00:16:42;;;;;;;21.63;15.57;;;;;;;;;;5094267;28;20839;-71
2022/11/07 00:19:09;;;;;;;24.87;16.17;;;;;;;;;;5094400;28;20463;-71
2022/11/07 00:21:37;;;;;;;23.80;15.90;;;;;;;;;;5094093;28;20454;-71
2022/11/07 00:24:04;;;;;;;25.07;15.33;;;;;;;;;;5093446;28;20451;-71
2022/11/07 00:26:31;;;;;;;20.33;15.33;;;;;;;;;;5091506;28;20848;-71
2022/11/07 00:28:58;;;;;;;24.20;16.47;;;;;;;;;;5094540;28;20446;-71
2022/11/07 00:31:27;;;;;;;25.10;16.60;;;;;;;;;;5094008;28;20451;-71
2022/11/07 00:33:54;;;;;;;24.90;16.10;;;;;;;;;;5093281;28;20533;-71
2022/11/07 00:36:22;;;;;;;21.33;14.43;;;;;;;;;;5094083;28;21006;-71
2022/11/07 00:38:50;;;;;;;22.10;15.47;;;;;;;;;;5094027;28;20455;-71
2022/11/07 00:41:17;;;;;;;30.20;17.63;;;;;;;;;;5094263;28;20454;-71
2022/11/07 00:43:44;;;;;;;21.43;15.43;;;;;;;;;;5092972;28;20450;-71
2022/11/07 00:46:12;;;;;;;23.40;15.97;;;;;;;;;;5093710;28;20466;-71
2022/11/07 00:48:41;;;;;;;22.80;15.37;;;;;;;;;;5093127;28;20461;-71
2022/11/07 00:51:08;;;;;;;19.90;14.70;;;;;;;;;;5093493;28;20446;-70
2022/11/07 00:53:35;;;;;;;19.87;14.30;;;;;;;;;;5093011;28;20954;-71
2022/11/07 00:56:02;;;;;;;22.10;15.23;;;;;;;;;;5093414;28;20494;-70
2022/11/07 00:58:30;;;;;;;19.40;14.00;;;;;;;;;;5093647;28;20472;-70
2022/11/07 01:00:58;;;;;;;16.80;12.97;;;;;;;;;;5093407;28;20461;-70
2022/11/07 01:06:11;;;;;;;18.50;12.80;;;;;;;;;;5093393;28;20820;-70
2022/11/07 01:08:38;;;;;;;22.50;13.20;;;;;;;;;;5093309;28;20457;-70
2022/11/07 01:11:06;;;;;;;17.53;12.43;;;;;;;;;;5093371;28;20940;-70
2022/11/07 01:13:34;;;;;;;16.03;12.30;;;;;;;;;;5092632;28;20555;-70
2022/11/07 01:16:01;;;;;;;20.97;12.90;;;;;;;;;;5092995;28;20984;-70
2022/11/07 01:18:28;;;;;;;21.87;14.33;;;;;;;;;;5093167;28;20458;-70
2022/11/07 01:20:55;;;;;;;17.17;12.30;;;;;;;;;;5093209;28;20453;-70
2022/11/07 01:23:24;;;;;;;17.83;12.03;;;;;;;;;;5092792;28;20465;-71
2022/11/07 01:25:51;;;;;;;21.47;13.20;;;;;;;;;;5089873;28;20947;-70
2022/11/07 01:28:18;;;;;;;16.40;13.50;;;;;;;;;;5093081;28;20470;-70
2022/11/07 01:30:45;;;;;;;17.93;12.70;;;;;;;;;;5092859;28;20808;-70
2022/11/07 01:33:13;;;;;;;19.77;13.50;;;;;;;;;;5092948;28;20454;-70
2022/11/07 01:35:40;;;;;;;16.50;11.87;;;;;;;;;;5092223;28;20487;-70
2022/11/07 01:38:07;;;;;;;13.80;11.20;;;;;;;;;;5092707;28;20944;-71
2022/11/07 01:41:19;;;;;;;19.77;12.27;;;;;;;;;;5092796;28;20546;-70
2022/11/07 01:43:42;;;;;;;15.50;12.17;;;;;;;;;;5091929;28;20500;-71
2022/11/07 01:46:09;;;;;;;16.07;11.50;;;;;;;;;;5092590;28;21002;-71
2022/11/07 01:48:36;;;;;;;14.97;10.97;;;;;;;;;;5092576;28;20449;-70
2022/11/07 01:51:03;;;;;;;18.90;11.03;;;;;;;;;;5092786;28;20450;-70
2022/11/07 01:53:30;;;;;;;13.70;10.90;;;;;;;;;;5091877;28;20454;-71
2022/11/07 01:55:59;;;;;;;14.50;11.43;;;;;;;;;;5092237;28;20504;-71
2022/11/07 01:58:26;;;;;;;14.70;10.50;;;;;;;;;;5092619;28;20449;-71
2022/11/07 02:00:53;;;;;;;12.43;10.17;;;;;;;;;;5092365;28;20459;-70
2022/11/07 02:03:21;;;;;;;9.17;7.93;;;;;;;;;;5092481;28;20455;-71
2022/11/07 02:05:51;;;;;;;12.30;9.00;;;;;;;;;;5091982;28;21134;-70
2022/11/07 02:08:18;;;;;;;11.13;7.87;;;;;;;;;;5092404;28;20454;-70
2022/11/07 02:10:46;;;;;;;10.30;8.00;;;;;;;;;;5092373;28;20455;-70
2022/11/07 02:13:18;;;;;;;10.63;8.43;;;;;;;;;;5092326;28;20446;-70
2022/11/07 02:15:45;;;;;;;12.40;8.87;;;;;;;;;;5091587;28;20500;-71
2022/11/07 02:18:12;;;;;;;12.10;9.10;;;;;;;;;;5092492;28;20450;-70
2022/11/07 02:20:40;;;;;;;11.40;9.27;;;;;;;;;;5092154;28;20457;-70
2022/11/07 02:23:09;;;;;;;13.03;9.37;;;;;;;;;;5092221;28;20453;-70
2022/11/07 02:25:37;;;;;;;15.83;11.73;;;;;;;;;;5089350;28;20541;-70
2022/11/07 02:28:06;;;;;;;12.70;10.80;;;;;;;;;;5092142;28;20451;-71
2022/11/07 02:30:34;;;;;;;12.53;9.60;;;;;;;;;;5092139;28;20812;-70
2022/11/07 02:33:01;;;;;;;15.57;10.50;;;;;;;;;;5092243;28;20519;-70
2022/11/07 02:35:46;;;;;;;13.20;10.37;;;;;;;;;;5091495;28;20501;-70
2022/11/07 02:38:16;;;;;;;14.87;10.60;;;;;;;;;;5092253;28;20446;-70
2022/11/07 02:40:46;;;;;;;15.77;11.27;;;;;;;;;;5092075;28;20446;-70
2022/11/07 02:43:13;;;;;;;19.13;13.00;;;;;;;;;;5092150;28;20453;-70
2022/11/07 02:45:42;;;;;;;14.20;11.17;;;;;;;;;;5091140;28;20476;-71
2022/11/07 02:48:09;;;;;;;14.67;10.60;;;;;;;;;;5092095;28;20454;-70
2022/11/07 02:50:36;;;;;;;16.37;11.10;;;;;;;;;;5091866;28;20453;-70
2022/11/07 02:53:04;;;;;;;17.80;12.80;;;;;;;;;;5092017;28;20940;-70
2022/11/07 02:55:31;;;;;;;16.03;11.07;;;;;;;;;;5091224;28;20494;-70
2022/11/07 02:57:59;;;;;;;17.23;10.30;;;;;;;;;;5091884;28;20454;-70
2022/11/07 03:00:27;;;;;;;11.90;9.97;;;;;;;;;;5091740;28;20545;-71
2022/11/07 03:02:54;;;;;;;14.50;9.40;;;;;;;;;;5091871;28;20465;-70
2022/11/07 03:05:22;;;;;;;13.13;9.60;;;;;;;;;;5091143;28;20442;-70
2022/11/07 03:07:49;;;;;;;11.43;9.70;;;;;;;;;;5091769;28;20545;-70
2022/11/07 03:10:17;;;;;;;11.87;9.50;;;;;;;;;;5092009;28;20875;-70
2022/11/07 03:12:45;;;;;;;13.60;9.70;;;;;;;;;;5092860;28;20446;-70
2022/11/07 03:15:13;;;;;;;12.10;8.27;;;;;;;;;;5094955;28;20495;-70
2022/11/07 03:17:40;;;;;;;14.77;9.83;;;;;;;;;;5095371;28;20450;-70
2022/11/07 03:20:08;;;;;;;14.77;11.30;;;;;;;;;;5095293;28;20450;-70
2022/11/07 03:22:36;;;;;;;14.23;10.30;;;;;;;;;;5095349;28;20450;-70
2022/11/07 03:25:03;;;;;;;13.07;9.70;;;;;;;;;;5092292;28;20782;-70
2022/11/07 03:27:30;;;;;;;15.00;10.20;;;;;;;;;;5095102;28;20921;-70
2022/11/07 03:29:57;;;;;;;11.93;9.93;;;;;;;;;;5095575;28;20840;-70
2022/11/07 03:32:25;;;;;;;13.00;10.03;;;;;;;;;;5095280;28;20450;-70
2022/11/07 03:34:53;;;;;;;14.47;12.10;;;;;;;;;;5094184;28;20451;-70
2022/11/07 03:37:20;;;;;;;11.93;9.43;;;;;;;;;;5095345;28;20837;-70
2022/11/07 03:39:47;;;;;;;11.33;8.43;;;;;;;;;;5094974;28;20534;-70
2022/11/07 03:42:14;;;;;;;14.40;10.37;;;;;;;;;;5094985;28;20447;-70
2022/11/07 03:44:41;;;;;;;18.13;11.30;;;;;;;;;;5094333;28;20469;-70
2022/11/07 03:47:08;;;;;;;11.93;9.37;;;;;;;;;;5094918;28;20466;-70
2022/11/07 03:49:37;;;;;;;10.50;9.20;;;;;;;;;;5094887;28;20451;-70
2022/11/07 03:52:04;;;;;;;11.83;8.80;;;;;;;;;;5095106;28;20447;-70
2022/11/07 03:54:31;;;;;;;12.57;9.73;;;;;;;;;;5094087;28;20548;-71
2022/11/07 03:56:58;;;;;;;10.50;7.80;;;;;;;;;;5094695;28;20967;-70
2022/11/07 03:59:25;;;;;;;12.60;9.53;;;;;;;;;;5094716;28;20446;-71
2022/11/07 04:01:52;;;;;;;11.30;8.63;;;;;;;;;;5094602;28;20464;-70
2022/11/07 04:04:20;;;;;;;14.67;10.43;;;;;;;;;;5094131;28;20446;-70
2022/11/07 04:06:48;;;;;;;11.50;7.50;;;;;;;;;;5094455;28;20473;-70
2022/11/07 04:09:15;;;;;;;11.07;9.20;;;;;;;;;;5094541;28;20818;-70
2022/11/07 04:17:20;;;;;;;15.30;11.80;;;;;;;;;;5094188;28;20501;-70
2022/11/07 04:19:48;;;;;;;18.17;12.50;;;;;;;;;;5094273;28;20484;-70
2022/11/07 04:22:16;;;;;;;15.90;11.53;;;;;;;;;;5094404;28;20450;-70
2022/11/07 04:24:44;;;;;;;16.87;13.63;;;;;;;;;;5091334;28;20462;-70
2022/11/07 04:29:58;;;;;;;17.93;11.60;;;;;;;;;;5088710;28;20496;-70
2022/11/07 04:32:26;;;;;;;24.50;17.17;;;;;;;;;;5094094;28;20442;-70
2022/11/07 04:34:53;;;;;;;19.90;13.70;;;;;;;;;;5093362;28;21045;-70
2022/11/07 04:37:21;;;;;;;16.37;13.27;;;;;;;;;;5093887;28;21042;-70
2022/11/07 04:39:48;;;;;;;17.10;12.50;;;;;;;;;;5093845;28;20449;-70
2022/11/07 04:42:15;;;;;;;16.00;11.57;;;;;;;;;;5093971;28;20442;-70
2022/11/07 04:44:43;;;;;;;20.63;14.00;;;;;;;;;;5093132;28;20453;-70
2022/11/07 04:47:10;;;;;;;19.03;14.97;;;;;;;;;;5093652;28;20458;-70
2022/11/07 04:49:37;;;;;;;21.57;14.43;;;;;;;;;;5093633;28;20810;-70
2022/11/07 04:52:04;;;;;;;17.07;12.90;;;;;;;;;;5093764;28;21042;-70
2022/11/07 04:54:33;;;;;;;18.83;14.13;;;;;;;;;;5093016;28;20442;-70
2022/11/07 04:57:00;;;;;;;16.87;12.33;;;;;;;;;;5093449;28;20871;-70
2022/11/07 04:59:27;;;;;;;25.57;17.20;;;;;;;;;;5093487;28;20451;-70
2022/11/07 05:01:54;;;;;;;15.73;12.53;;;;;;;;;;5093543;28;20458;-70
2022/11/07 05:04:21;;;;;;;16.83;11.90;;;;;;;;;;5092844;28;20453;-70
2022/11/07 05:06:48;;;;;;;14.20;9.70;;;;;;;;;;5093387;28;20459;-70
2022/11/07 05:09:16;;;;;;;14.73;9.90;;;;;;;;;;5093423;28;20952;-71
2022/11/07 05:11:45;;;;;;;14.90;9.77;;;;;;;;;;5093107;28;20817;-70
2022/11/07 05:14:13;;;;;;;16.30;10.43;;;;;;;;;;5092533;28;20473;-70
2022/11/07 05:16:40;;;;;;;33.50;17.17;;;;;;;;;;5092958;28;21021;-71
2022/11/07 05:19:07;;;;;;;16.10;11.77;;;;;;;;;;5093306;28;20958;-70
2022/11/07 05:21:36;;;;;;;14.90;10.20;;;;;;;;;;5093060;28;20474;-70
2022/11/07 05:24:02;;;;;;;18.60;11.37;;;;;;;;;;5092496;28;20461;-71
2022/11/07 05:26:29;;;;;;;14.57;10.47;;;;;;;;;;5090848;28;21006;-70
2022/11/07 05:28:57;;;;;;;19.63;12.50;;;;;;;;;;5093040;28;20451;-71
2022/11/07 05:31:25;;;;;;;27.77;19.23;;;;;;;;;;5093013;28;20451;-71
2022/11/07 05:33:52;;;;;;;18.17;11.70;;;;;;;;;;5092225;28;20450;-71
2022/11/07 05:36:20;;;;;;;14.00;10.57;;;;;;;;;;5092307;28;20991;-70
2022/11/07 05:38:48;;;;;;;15.73;11.00;;;;;;;;;;5092653;28;20462;-70
2022/11/07 05:41:15;;;;;;;12.50;9.80;;;;;;;;;;5093021;28;20442;-70
2022/11/07 05:43:43;;;;;;;12.00;9.13;;;;;;;;;;5092017;28;20472;-70
2022/11/07 05:46:11;;;;;;;12.27;9.50;;;;;;;;;;5092728;28;20470;-70
2022/11/07 05:48:39;;;;;;;11.73;10.13;;;;;;;;;;5092652;28;20454;-70
2022/11/07 05:51:07;;;;;;;13.87;10.20;;;;;;;;;;5091554;28;20453;-70
2022/11/07 05:53:34;;;;;;;10.77;8.83;;;;;;;;;;5092296;28;20461;-71
2022/11/07 05:56:01;;;;;;;12.80;9.80;;;;;;;;;;5092313;28;20486;-71
2022/11/07 05:58:28;;;;;;;15.23;9.97;;;;;;;;;;5086685;28;20461;-70
2022/11/07 06:00:56;;;;;;;12.03;9.63;;;;;;;;;;5092483;28;20469;-70
2022/11/07 06:03:24;;;;;;;13.30;8.83;;;;;;;;;;5091859;28;20447;-70
2022/11/07 06:05:51;;;;;;;8.60;6.87;;;;;;;;;;5091666;28;20987;-70
2022/11/07 06:08:18;;;;;;;8.60;7.30;;;;;;;;;;5092320;28;20447;-70
2022/11/07 06:10:45;;;;;;;14.83;9.70;;;;;;;;;;5092024;28;20455;-70
2022/11/07 06:13:13;;;;;;;15.57;10.37;;;;;;;;;;5092024;28;20480;-70
2022/11/07 06:15:41;;;;;;;18.90;14.40;;;;;;;;;;5091661;28;20480;-70
2022/11/07 06:18:09;;;;;;;24.10;17.73;;;;;;;;;;5091947;28;20466;-71
2022/11/07 06:20:37;;;;;;;18.03;12.40;;;;;;;;;;5092041;28;20451;-71
2022/11/07 06:23:05;;;;;;;16.37;12.53;;;;;;;;;;5091944;28;20457;-71
2022/11/07 06:25:33;;;;;;;14.53;10.53;;;;;;;;;;5090096;28;20446;-71
2022/11/07 06:28:00;;;;;;;14.47;9.10;;;;;;;;;;5092130;28;20447;-70
2022/11/07 06:30:28;;;;;;;12.47;9.60;;;;;;;;;;5092028;28;20454;-71
2022/11/07 06:32:55;;;;;;;14.97;12.50;;;;;;;;;;5091724;28;20457;-71
2022/11/07 06:35:23;;;;;;;19.27;14.83;;;;;;;;;;5091620;28;20450;-70
2022/11/07 06:37:51;;;;;;;24.57;14.40;;;;;;;;;;5091720;28;20995;-71
2022/11/07 06:40:18;;;;;;;13.63;10.27;;;;;;;;;;5091736;28;20460;-71
2022/11/07 06:42:45;;;;;;;16.50;10.20;;;;;;;;;;5091702;28;20461;-71
2022/11/07 06:45:12;;;;;;;12.67;10.20;;;;;;;;;;5091508;28;20457;-71
2022/11/07 06:47:40;;;;;;;10.93;9.10;;;;;;;;;;5092976;28;20507;-71
2022/11/07 06:50:07;;;;;;;11.10;8.20;;;;;;;;;;5095925;28;20461;-71
2022/11/07 06:52:34;;;;;;;12.87;11.50;;;;;;;;;;5095492;28;20450;-71
2022/11/07 06:55:03;;;;;;;14.10;9.80;;;;;;;;;;5095435;28;20954;-70
2022/11/07 06:57:30;;;;;;;12.33;9.07;;;;;;;;;;5095636;28;20864;-71
2022/11/07 06:59:58;;;;;;;12.00;8.13;;;;;;;;;;5095594;28;20450;-71
2022/11/07 07:02:25;;;;;;;11.70;8.40;;;;;;;;;;5095472;28;20461;-71
2022/11/07 07:04:52;;;;;;;12.53;8.73;;;;;;;;;;5095063;28;20457;-71
2022/11/07 07:07:19;;;;;;;9.70;7.40;;;;;;;;;;5095515;28;20964;-71
2022/11/07 07:09:46;;;;;;;17.20;12.10;;;;;;;;;;5095486;28;20449;-70
2022/11/07 07:12:14;;;;;;;18.20;12.40;;;;;;;;;;5095208;28;20936;-70
2022/11/07 07:14:42;;;;;;;12.80;8.40;;;;;;;;;;5094649;28;20485;-70
2022/11/07 07:17:10;;;;;;;9.83;7.87;;;;;;;;;;5095353;28;20490;-70
2022/11/07 07:19:37;;;;;;;10.90;9.37;;;;;;;;;;5095368;28;20959;-70
2022/11/07 07:22:04;;;;;;;12.30;8.10;;;;;;;;;;5094958;28;20454;-70
2022/11/07 07:24:31;;;;;;;7.93;7.13;;;;;;;;;;5093126;28;20952;-71
2022/11/07 07:26:58;;;;;;;8.07;6.60;;;;;;;;;;5094934;28;20475;-71
2022/11/07 07:29:27;;;;;;;7.60;5.90;;;;;;;;;;5095510;28;20451;-71
2022/11/07 07:31:54;;;;;;;8.67;6.40;;;;;;;;;;5084971;28;20957;-71
2022/11/07 07:34:21;;;;;;;4.77;4.30;;;;;;;;;;5074323;28;20798;-71
2022/11/07 07:36:49;;;;;;;5.90;4.00;;;;;;;;;;5074432;28;20494;-71
2022/11/07 07:39:16;;;;;;;6.57;4.67;;;;;;;;;;5074767;28;20945;-71
2022/11/07 07:41:43;;;;;;;5.10;4.00;;;;;;;;;;5074439;28;20467;-71
2022/11/07 07:44:10;;;;;;;4.57;3.87;;;;;;;;;;5089378;28;20450;-71
2022/11/07 07:46:38;;;;;;;11.37;7.53;;;;;;;;;;5094301;28;20808;-71
2022/11/07 07:49:06;;;;;;;6.83;5.33;;;;;;;;;;5094742;28;20990;-71
2022/11/07 07:51:33;;;;;;;7.00;3.73;;;;;;;;;;5094927;28;20453;-71
2022/11/07 07:54:00;;;;;;;5.70;4.30;;;;;;;;;;5093775;28;20455;-71
2022/11/07 07:56:27;;;;;;;4.10;3.30;;;;;;;;;;5094088;28;20490;-71
2022/11/07 07:58:54;;;;;;;3.00;2.43;;;;;;;;;;5094122;28;20455;-71
2022/11/07 08:01:22;;;;;;;3.20;2.53;;;;;;;;;;5094396;28;20455;-71
2022/11/07 08:03:50;;;;;;;3.77;2.80;;;;;;;;;;5093829;28;20532;-71
2022/11/07 08:06:17;;;;;;;6.13;4.73;;;;;;;;;;5094403;28;20462;-71
2022/11/07 08:08:44;;;;;;;4.57;3.50;;;;;;;;;;5093998;28;20459;-71
2022/11/07 08:11:12;;;;;;;4.40;2.97;;;;;;;;;;5094437;28;20944;-71
2022/11/07 08:13:39;;;;;;;3.33;2.70;;;;;;;;;;5093431;28;20470;-71
2022/11/07 08:16:07;;;;;;;4.70;3.50;;;;;;;;;;5093932;28;20492;-71
2022/11/07 08:18:38;;;;;;;3.30;3.00;;;;;;;;;;5094259;28;20812;-71
2022/11/07 08:21:07;;;;;;;3.53;2.50;;;;;;;;;;5094246;28;20461;-71
2022/11/07 08:23:35;;;;;;;3.13;2.40;;;;;;;;;;5093852;28;20451;-71
2022/11/07 08:26:03;;;;;;;4.17;2.53;;;;;;;;;;5092369;28;20843;-71
2022/11/07 08:28:31;;;;;;;2.10;1.90;;;;;;;;;;5094062;28;20454;-71
2022/11/07 08:30:59;;;;;;;4.97;2.73;;;;;;;;;;5094194;28;20458;-71
2022/11/07 08:33:26;;;;;;;4.37;2.33;;;;;;;;;;5093963;28;20446;-71
2022/11/07 08:35:54;;;;;;;3.13;2.23;;;;;;;;;;5093085;28;20483;-71
2022/11/07 08:38:23;;;;;;;2.70;2.10;;;;;;;;;;5092364;28;20491;-71
2022/11/07 08:40:50;;;;;;;4.27;3.23;;;;;;;;;;5092913;28;20455;-71
2022/11/07 08:43:17;;;;;;;4.20;3.00;;;;;;;;;;5094014;28;20455;-71
2022/11/07 08:45:45;;;;;;;3.10;2.20;;;;;;;;;;5093412;28;20999;-71
2022/11/07 08:48:12;;;;;;;3.17;2.43;;;;;;;;;;5093438;28;20470;-71
2022/11/07 08:50:39;;;;;;;3.40;2.70;;;;;;;;;;5092555;28;20474;-71
2022/11/07 08:53:07;;;;;;;3.00;2.10;;;;;;;;;;5093861;28;20450;-71
2022/11/07 08:55:35;;;;;;;6.53;2.97;;;;;;;;;;5092820;28;20456;-71
2022/11/07 08:58:04;;;;;;;2.37;1.80;;;;;;;;;;5093686;28;20487;-70
2022/11/07 09:00:31;;;;;;;4.60;2.30;;;;;;;;;;5093595;28;20456;-71
2022/11/07 09:03:01;;;;;;;2.30;1.90;;;;;;;;;;5093432;28;20455;-71
2022/11/07 09:05:29;;;;;;;3.20;2.00;;;;;;;;;;5092887;28;20450;-71
2022/11/07 09:07:56;;;;;;;3.60;2.00;;;;;;;;;;5093386;28;20438;-71
2022/11/07 09:10:23;;;;;;;2.70;1.80;;;;;;;;;;5092660;28;20490;-71
2022/11/07 09:12:52;;;;;;;2.77;2.30;;;;;;;;;;5093339;28;20470;-71
2022/11/07 09:15:19;;;;;;;3.10;2.50;;;;;;;;;;5092497;28;20462;-71
2022/11/07 09:17:47;;;;;;;3.67;3.00;;;;;;;;;;5093242;28;20858;-71
2022/11/07 09:20:14;;;;;;;5.80;4.17;;;;;;;;;;5093378;28;20450;-71
2022/11/07 09:22:41;;;;;;;2.40;1.70;;;;;;;;;;5093126;28;20971;-71
2022/11/07 09:25:09;;;;;;;2.77;1.90;;;;;;;;;;5090533;28;20461;-71
2022/11/07 09:27:36;;;;;;;2.30;1.80;;;;;;;;;;5093025;28;20469;-71
2022/11/07 09:30:05;;;;;;;2.23;1.60;;;;;;;;;;5093181;28;20473;-72
2022/11/07 09:32:32;;;;;;;2.20;1.63;;;;;;;;;;5093121;28;20446;-71
2022/11/07 09:34:59;;;;;;;3.40;2.40;;;;;;;;;;5092132;28;20447;-71
2022/11/07 09:37:27;;;;;;;3.50;2.50;;;;;;;;;;5092790;28;20551;-71
2022/11/07 09:39:54;;;;;;;2.13;1.93;;;;;;;;;;5091522;28;20457;-71
2022/11/07 09:42:25;;;;;;;5.23;1.47;;;;;;;;;;5093053;28;20829;-71
2022/11/07 09:44:55;;;;;;;2.60;1.90;;;;;;;;;;5092337;28;20473;-72
2022/11/07 09:47:25;;;;;;;1.90;1.33;;;;;;;;;;5092715;28;20968;-72
2022/11/07 09:49:53;;;;;;;2.60;1.40;;;;;;;;;;5092705;28;20824;-74
2022/11/07 09:52:24;;;;;;;2.77;1.50;;;;;;;;;;5092751;28;20457;-74
2022/11/07 09:54:55;;;;;;;2.60;2.03;;;;;;;;;;5091920;28;20940;-74
2022/11/07 09:57:23;;;;;;;2.97;2.03;;;;;;;;;;5092481;28;20501;-74
2022/11/07 09:59:52;;;;;;;2.10;1.87;;;;;;;;;;5092633;28;20446;-72
2022/11/07 10:02:20;;;;;;;1.80;1.40;;;;;;;;;;5092750;28;20447;-72
2022/11/07 10:04:52;;;;;;;3.07;1.50;;;;;;;;;;5091931;28;20467;-72
2022/11/07 10:07:24;;;;;;;3.30;1.53;;;;;;;;;;5092311;28;20482;-72
2022/11/07 10:09:57;;;;;;;2.00;1.40;;;;;;;;;;5092581;28;20810;-72
2022/11/07 10:12:31;;;;;;;4.33;1.80;;;;;;;;;;5092557;28;20970;-72
2022/11/07 10:15:02;;;;;;;5.20;1.90;;;;;;;;;;5091776;28;20462;-73
2022/11/07 10:17:36;;;;;;;2.17;1.90;;;;;;;;;;5092163;28;20494;-74
2022/11/07 10:20:14;;;;;;;3.67;2.63;;;;;;;;;;5092338;28;20461;-74
2022/11/07 10:22:47;;;;;;;3.97;1.97;;;;;;;;;;5097496;28;20454;-73
2022/11/07 10:25:20;;;;;;;3.00;1.50;;;;;;;;;;5095709;28;20906;-74
2022/11/07 10:27:50;;;;;;;2.20;1.50;;;;;;;;;;5099128;28;20500;-74
2022/11/07 10:30:20;;;;;;;2.60;1.70;;;;;;;;;;5099026;28;20462;-73
2022/11/07 10:32:52;;;;;;;2.40;1.93;;;;;;;;;;5099044;28;20778;-73
2022/11/07 10:35:25;;;;;;;1.70;1.30;;;;;;;;;;5098499;28;20949;-74
2022/11/07 10:37:56;;;;;;;1.70;1.50;;;;;;;;;;5098994;28;20496;-74
2022/11/07 10:40:24;;;;;;;1.90;1.23;;;;;;;;;;5097540;28;20810;-74
2022/11/07 10:42:52;;;;;;;2.37;1.40;;;;;;;;;;5098904;28;20457;-73
2022/11/07 10:45:19;;;;;;;1.70;1.47;;;;;;;;;;5098810;28;21220;-73
2022/11/07 10:47:56;;;;;;;1.90;1.40;;;;;;;;;;5099093;28;20487;-73
2022/11/07 10:50:25;;;;;;;1.53;1.20;;;;;;;;;;5099045;28;20481;-73
2022/11/07 10:52:53;;;;;;;3.20;1.47;;;;;;;;;;5098926;28;20442;-73
2022/11/07 10:55:20;;;;;;;2.87;1.90;;;;;;;;;;5098134;28;20903;-73
2022/11/07 10:57:50;;;;;;;1.40;1.20;;;;;;;;;;5098741;28;20929;-72
2022/11/07 11:00:22;;;;;;;2.00;1.40;;;;;;;;;;5099047;28;20482;-73
2022/11/07 11:02:50;;;;;;;2.53;1.20;;;;;;;;;;5098866;28;20453;-72
2022/11/07 11:05:21;;;;;;;3.00;1.50;;;;;;;;;;5098275;28;20443;-72
2022/11/07 11:07:50;;;;;;;4.00;1.60;;;;;;;;;;5098620;28;20451;-72
2022/11/07 11:10:21;;;;;;;2.47;1.37;;;;;;;;;;5098833;28;20460;-72
2022/11/07 11:12:49;;;;;;;1.73;1.20;;;;;;;;;;5098630;28;20450;-73
2022/11/07 11:15:18;;;;;;;3.40;1.87;;;;;;;;;;5097916;28;20563;-74
2022/11/07 11:17:45;;;;;;;2.70;2.17;;;;;;;;;;5098707;28;20845;-74
2022/11/07 11:20:29;;;;;;;1.90;1.33;;;;;;;;;;5098588;28;20461;-74
2022/11/07 11:22:58;;;;;;;1.90;1.53;;;;;;;;;;5098828;28;20947;-74
2022/11/07 11:25:25;;;;;;;2.13;1.50;;;;;;;;;;5095822;28;20462;-74
2022/11/07 11:27:55;;;;;;;1.60;1.40;;;;;;;;;;5098768;28;20461;-74
2022/11/07 11:30:22;;;;;;;1.97;1.50;;;;;;;;;;5098786;28;20464;-72
2022/11/07 11:32:51;;;;;;;2.10;1.70;;;;;;;;;;5097194;28;20958;-72
2022/11/07 11:35:22;;;;;;;2.30;1.47;;;;;;;;;;5094550;28;20450;-74
2022/11/07 11:37:51;;;;;;;2.13;1.40;;;;;;;;;;5095072;28;20486;-74
2022/11/07 11:40:22;;;;;;;2.47;1.50;;;;;;;;;;5093744;28;20477;-74
2022/11/07 11:42:52;;;;;;;1.90;1.40;;;;;;;;;;5095149;28;20461;-74
2022/11/07 11:45:22;;;;;;;5.90;1.70;;;;;;;;;;5094397;28;20455;-74
2022/11/07 11:47:53;;;;;;;3.47;2.70;;;;;;;;;;5094876;28;20446;-74
2022/11/07 11:50:22;;;;;;;3.40;2.50;;;;;;;;;;5095032;28;20453;-74
2022/11/07 11:52:50;;;;;;;3.20;1.50;;;;;;;;;;5094910;28;20469;-74
2022/11/07 11:55:18;;;;;;;3.20;1.60;;;;;;;;;;5094460;28;20462;-74
2022/11/07 11:57:50;;;;;;;3.27;1.50;;;;;;;;;;5094650;28;20512;-74
2022/11/07 12:00:18;;;;;;;2.80;1.47;;;;;;;;;;5094931;28;20507;-74
2022/11/07 12:02:48;;;;;;;1.87;1.40;;;;;;;;;;5094660;28;20813;-74
2022/11/07 12:05:34;;;;;;;3.30;2.80;;;;;;;;;;5094532;28;20435;-72
2022/11/07 12:08:09;;;;;;;1.73;1.30;;;;;;;;;;5094584;28;20443;-72
2022/11/07 12:10:40;;;;;;;2.27;1.63;;;;;;;;;;5094642;28;20446;-72
2022/11/07 12:13:13;;;;;;;1.50;1.23;;;;;;;;;;5094800;28;20837;-72
2022/11/07 12:15:45;;;;;;;2.33;1.63;;;;;;;;;;5094233;28;20474;-72
2022/11/07 12:18:15;;;;;;;1.50;1.27;;;;;;;;;;5094492;28;20482;-72
2022/11/07 12:20:46;;;;;;;1.70;1.47;;;;;;;;;;5094478;28;20466;-72
2022/11/07 12:23:22;;;;;;;2.57;1.60;;;;;;;;;;5094738;28;20472;-73
2022/11/07 12:25:54;;;;;;;3.30;1.60;;;;;;;;;;5092804;28;20840;-72
2022/11/07 12:28:33;;;;;;;1.90;1.33;;;;;;;;;;5095783;28;20439;-72
2022/11/07 12:31:05;;;;;;;2.27;1.37;;;;;;;;;;5094401;28;20443;-72
2022/11/07 12:33:35;;;;;;;1.97;1.40;;;;;;;;;;5093781;28;20454;-72
2022/11/07 12:36:03;;;;;;;1.60;1.20;;;;;;;;;;5094360;28;20983;-72
2022/11/07 12:38:48;;;;;;;1.93;1.37;;;;;;;;;;5094266;28;20486;-72
2022/11/07 12:41:19;;;;;;;2.43;1.53;;;;;;;;;;5093060;28;20927;-72
2022/11/07 12:43:54;;;;;;;1.83;1.33;;;;;;;;;;5093510;28;20454;-72
2022/11/07 12:46:26;;;;;;;1.77;1.20;;;;;;;;;;5092990;28;20470;-72
2022/11/07 12:49:00;;;;;;;5.00;1.47;;;;;;;;;;5093924;28;20493;-72
2022/11/07 12:51:34;;;;;;;1.43;1.00;;;;;;;;;;5093957;28;20453;-72
2022/11/07 12:54:04;;;;;;;2.10;1.17;;;;;;;;;;5093351;28;20950;-72
2022/11/07 12:56:33;;;;;;;4.33;1.30;;;;;;;;;;5093645;28;20843;-72
2022/11/07 12:59:06;;;;;;;3.20;1.30;;;;;;;;;;5094435;28;20488;-72
2022/11/07 13:01:39;;;;;;;1.73;1.27;;;;;;;;;;5093759;28;20439;-71
2022/11/07 13:04:11;;;;;;;1.50;1.10;;;;;;;;;;5093547;28;20457;-71
2022/11/07 13:06:42;;;;;;;2.07;1.30;;;;;;;;;;5093397;28;20835;-71
2022/11/07 13:09:14;;;;;;;4.70;1.40;;;;;;;;;;5093719;28;20824;-71
2022/11/07 13:11:45;;;;;;;3.60;1.33;;;;;;;;;;5093385;28;20455;-71
2022/11/07 13:14:29;;;;;;;3.53;1.37;;;;;;;;;;5092998;28;20501;-72
2022/11/07 13:17:12;;;;;;;2.00;1.20;;;;;;;;;;5093643;28;20553;-72
2022/11/07 13:19:41;;;;;;;1.97;1.00;;;;;;;;;;5093651;28;20471;-72
2022/11/07 13:22:20;;;;;;;2.80;1.77;;;;;;;;;;5093297;28;20478;-72
2022/11/07 13:24:51;;;;;;;3.50;1.37;;;;;;;;;;5090068;28;20435;-72
2022/11/07 13:27:22;;;;;;;2.83;1.57;;;;;;;;;;5093247;28;20505;-72
2022/11/07 13:29:49;;;;;;;3.43;1.90;;;;;;;;;;5093186;28;20451;-72
2022/11/07 13:32:17;;;;;;;1.77;1.20;;;;;;;;;;5093081;28;20465;-72
2022/11/07 13:34:49;;;;;;;2.00;1.40;;;;;;;;;;5092132;28;20454;-72
2022/11/07 13:37:24;;;;;;;6.20;2.37;;;;;;;;;;5093372;28;20850;-72
2022/11/07 13:39:52;;;;;;;3.00;1.73;;;;;;;;;;5092181;28;20788;-72
2022/11/07 13:42:19;;;;;;;2.60;1.87;;;;;;;;;;5093175;28;20458;-72
2022/11/07 13:44:51;;;;;;;1.67;1.20;;;;;;;;;;5092224;28;20461;-72
2022/11/07 13:47:22;;;;;;;1.50;1.10;;;;;;;;;;5092880;28;20471;-72
2022/11/07 13:49:49;;;;;;;2.93;1.20;;;;;;;;;;5092876;28;20457;-72
2022/11/07 13:52:19;;;;;;;2.73;1.20;;;;;;;;;;5092877;28;20469;-72
2022/11/07 13:54:51;;;;;;;9.03;1.63;;;;;;;;;;5092164;28;20545;-72
2022/11/07 13:57:19;;;;;;;3.83;2.20;;;;;;;;;;5092622;28;20821;-72
2022/11/07 13:59:50;;;;;;;3.27;1.90;;;;;;;;;;5092472;28;20513;-72
2022/11/07 14:02:22;;;;;;;2.17;1.37;;;;;;;;;;5092976;28;20451;-72
2022/11/07 14:04:50;;;;;;;6.30;2.93;;;;;;;;;;5091460;28;20538;-73
2022/11/07 14:07:17;;;;;;;3.10;2.30;;;;;;;;;;5092692;28;20466;-72
2022/11/07 14:09:45;;;;;;;5.00;2.93;;;;;;;;;;5092360;28;20501;-72
2022/11/07 14:12:17;;;;;;;4.80;2.33;;;;;;;;;;5092773;28;20481;-71
2022/11/07 14:14:45;;;;;;;8.23;2.47;;;;;;;;;;5091999;28;20473;-71
2022/11/07 14:17:14;;;;;;;2.73;1.53;;;;;;;;;;5088715;28;20500;-71
2022/11/07 14:19:42;;;;;;;4.87;2.63;;;;;;;;;;5087912;28;20492;-71
2022/11/07 14:22:21;;;;;;;12.13;4.93;;;;;;;;;;5113068;28;20455;-74
2022/11/07 14:24:51;;;;;;;8.90;3.93;;;;;;;;;;5113704;28;20792;-73
2022/11/07 14:27:18;;;;;;;8.33;3.50;;;;;;;;;;5100468;28;20998;-71
2022/11/07 14:29:51;;;;;;;2.83;2.10;;;;;;;;;;5091347;28;20450;-70
2022/11/07 14:32:18;;;;;;;9.37;5.80;;;;;;;;;;5084019;28;20960;-70
2022/11/07 14:34:48;;;;;;;4.40;2.60;;;;;;;;;;5082616;28;20549;-71
2022/11/07 14:37:16;;;;;;;5.03;2.23;;;;;;;;;;5087801;28;20997;-71
2022/11/07 14:39:44;;;;;;;2.90;1.63;;;;;;;;;;5071710;28;20489;-71
2022/11/07 14:42:14;;;;;;;2.80;1.80;;;;;;;;;;5087053;28;20459;-71
2022/11/07 14:44:42;;;;;;;2.80;1.90;;;;;;;;;;5089537;28;20947;-71
2022/11/07 14:47:12;;;;;;;8.63;1.60;;;;;;;;;;5090947;28;20466;-71
2022/11/07 14:49:40;;;;;;;2.37;1.50;;;;;;;;;;5091150;28;20449;-71
2022/11/07 14:52:15;;;;;;;8.77;5.20;;;;;;;;;;5090849;28;20450;-71
2022/11/07 14:54:43;;;;;;;7.83;3.13;;;;;;;;;;5090050;28;20446;-71